sensor_id;sensor_type;location;lat;lon;timestamp;temperature;humidity
9881;DHT22;4979;51.014;6.678;2023-10-08T00:00:49;18.10;99.90
9881;DHT22;4979;51.014;6.678;2023-10-08T00:03:16;18.00;99.90
9881;DHT22;4979;51.014;6.678;2023-10-08T00:05:42;18.00;99.90
9881;DHT22;4979;51.014;6.678;2023-10-08T00:08:08;18.00;99.90
9881;DHT22;4979;51.014;6.678;2023-10-08T00:10:38;17.90;99.90
9881;DHT22;4979;51.014;6.678;2023-10-08T00:13:08;17.90;99.90
9881;DHT22;4979;51.014;6.678;2023-10-08T00:15:39;17.80;99.90
9881;DHT22;4979;51.014;6.678;2023-10-08T00:18:14;17.80;99.90
9881;DHT22;4979;51.014;6.678;2023-10-08T00:20:40;17.80;99.90
9881;DHT22;4979;51.014;6.678;2023-10-08T00:23:31;17.70;99.90
9881;DHT22;4979;51.014;6.678;2023-10-08T00:26:00;17.70;99.90
9881;DHT22;4979;51.014;6.678;2023-10-08T00:28:32;17.70;99.90
9881;DHT22;4979;51.014;6.678;2023-10-08T00:31:03;17.70;99.90
9881;DHT22;4979;51.014;6.678;2023-10-08T00:33:36;17.70;99.90
9881;DHT22;4979;51.014;6.678;2023-10-08T00:36:02;17.60;99.90
9881;DHT22;4979;51.014;6.678;2023-10-08T00:38:43;17.60;99.90
9881;DHT22;4979;51.014;6.678;2023-10-08T00:41:16;17.60;99.90
9881;DHT22;4979;51.014;6.678;2023-10-08T00:43:41;17.50;99.90
9881;DHT22;4979;51.014;6.678;2023-10-08T00:46:10;17.50;99.90
9881;DHT22;4979;51.014;6.678;2023-10-08T00:48:57;17.50;99.90
9881;DHT22;4979;51.014;6.678;2023-10-08T00:51:24;17.50;99.90
9881;DHT22;4979;51.014;6.678;2023-10-08T00:54:02;17.40;99.90
9881;DHT22;4979;51.014;6.678;2023-10-08T00:56:33;17.40;99.90
9881;DHT22;4979;51.014;6.678;2023-10-08T00:59:18;17.40;99.90
9881;DHT22;4979;51.014;6.678;2023-10-08T01:01:47;17.40;99.90
9881;DHT22;4979;51.014;6.678;2023-10-08T01:04:21;17.30;99.90
9881;DHT22;4979;51.014;6.678;2023-10-08T01:06:57;17.30;99.90
9881;DHT22;4979;51.014;6.678;2023-10-08T01:09:30;17.30;99.90
9881;DHT22;4979;51.014;6.678;2023-10-08T01:12:15;17.20;99.90
9881;DHT22;4979;51.014;6.678;2023-10-08T01:15:01;17.20;99.90
9881;DHT22;4979;51.014;6.678;2023-10-08T01:17:41;17.10;99.90
9881;DHT22;4979;51.014;6.678;2023-10-08T01:20:16;17.10;99.90
9881;DHT22;4979;51.014;6.678;2023-10-08T01:22:58;17.00;99.90
9881;DHT22;4979;51.014;6.678;2023-10-08T01:25:23;17.00;99.90
9881;DHT22;4979;51.014;6.678;2023-10-08T01:27:55;17.00;99.90
9881;DHT22;4979;51.014;6.678;2023-10-08T01:30:21;16.90;99.90
9881;DHT22;4979;51.014;6.678;2023-10-08T01:32:46;16.90;99.90
9881;DHT22;4979;51.014;6.678;2023-10-08T01:35:13;16.90;99.90
9881;DHT22;4979;51.014;6.678;2023-10-08T01:37:52;16.90;99.90
9881;DHT22;4979;51.014;6.678;2023-10-08T01:40:18;16.80;99.90
9881;DHT22;4979;51.014;6.678;2023-10-08T01:42:44;16.80;99.90
9881;DHT22;4979;51.014;6.678;2023-10-08T01:45:10;16.80;99.90
9881;DHT22;4979;51.014;6.678;2023-10-08T01:47:43;16.70;99.90
9881;DHT22;4979;51.014;6.678;2023-10-08T01:50:08;16.70;99.90
9881;DHT22;4979;51.014;6.678;2023-10-08T01:52:49;16.60;99.90
9881;DHT22;4979;51.014;6.678;2023-10-08T01:55:17;16.60;99.90
9881;DHT22;4979;51.014;6.678;2023-10-08T01:57:44;16.60;99.90
9881;DHT22;4979;51.014;6.678;2023-10-08T02:00:10;16.50;99.90
9881;DHT22;4979;51.014;6.678;2023-10-08T02:02:36;16.50;99.90
9881;DHT22;4979;51.014;6.678;2023-10-08T02:05:01;16.40;99.90
9881;DHT22;4979;51.014;6.678;2023-10-08T02:07:29;16.50;99.90
9881;DHT22;4979;51.014;6.678;2023-10-08T02:09:56;16.40;99.90
9881;DHT22;4979;51.014;6.678;2023-10-08T02:14:49;16.40;99.90
9881;DHT22;4979;51.014;6.678;2023-10-08T02:17:14;16.40;99.90
9881;DHT22;4979;51.014;6.678;2023-10-08T02:19:40;16.40;99.90
9881;DHT22;4979;51.014;6.678;2023-10-08T02:22:07;16.40;99.90
9881;DHT22;4979;51.014;6.678;2023-10-08T02:24:35;16.40;99.90
9881;DHT22;4979;51.014;6.678;2023-10-08T02:27:01;16.40;99.90
9881;DHT22;4979;51.014;6.678;2023-10-08T02:29:29;16.40;99.90
9881;DHT22;4979;51.014;6.678;2023-10-08T02:31:56;16.30;99.90
9881;DHT22;4979;51.014;6.678;2023-10-08T02:34:22;16.30;99.90
9881;DHT22;4979;51.014;6.678;2023-10-08T02:36:47;16.30;99.90
9881;DHT22;4979;51.014;6.678;2023-10-08T02:39:14;16.30;99.90
9881;DHT22;4979;51.014;6.678;2023-10-08T02:44:08;16.30;99.90
9881;DHT22;4979;51.014;6.678;2023-10-08T02:46:41;16.30;99.90
9881;DHT22;4979;51.014;6.678;2023-10-08T02:49:08;16.30;99.90
9881;DHT22;4979;51.014;6.678;2023-10-08T02:51:38;16.30;99.90
9881;DHT22;4979;51.014;6.678;2023-10-08T02:54:04;16.30;99.90
9881;DHT22;4979;51.014;6.678;2023-10-08T02:56:32;16.30;99.90
9881;DHT22;4979;51.014;6.678;2023-10-08T02:58:58;16.30;99.90
9881;DHT22;4979;51.014;6.678;2023-10-08T03:01:25;16.30;99.90
9881;DHT22;4979;51.014;6.678;2023-10-08T03:03:51;16.30;99.90
9881;DHT22;4979;51.014;6.678;2023-10-08T03:06:27;16.30;99.90
9881;DHT22;4979;51.014;6.678;2023-10-08T03:08:52;16.30;99.90
9881;DHT22;4979;51.014;6.678;2023-10-08T03:11:18;16.30;99.90
9881;DHT22;4979;51.014;6.678;2023-10-08T03:13:44;16.20;99.90
9881;DHT22;4979;51.014;6.678;2023-10-08T03:16:13;16.20;99.90
9881;DHT22;4979;51.014;6.678;2023-10-08T03:18:39;16.20;99.90
9881;DHT22;4979;51.014;6.678;2023-10-08T03:21:10;16.20;99.90
9881;DHT22;4979;51.014;6.678;2023-10-08T03:23:59;16.20;99.90
9881;DHT22;4979;51.014;6.678;2023-10-08T03:26:25;16.10;99.90
9881;DHT22;4979;51.014;6.678;2023-10-08T03:28:57;16.10;99.90
9881;DHT22;4979;51.014;6.678;2023-10-08T03:31:25;16.00;99.90
9881;DHT22;4979;51.014;6.678;2023-10-08T03:34:16;16.00;99.90
9881;DHT22;4979;51.014;6.678;2023-10-08T03:36:44;16.00;99.90
9881;DHT22;4979;51.014;6.678;2023-10-08T03:39:11;16.00;99.90
9881;DHT22;4979;51.014;6.678;2023-10-08T03:41:41;16.00;99.90
9881;DHT22;4979;51.014;6.678;2023-10-08T03:46:40;16.00;99.90
9881;DHT22;4979;51.014;6.678;2023-10-08T03:49:12;16.00;99.90
9881;DHT22;4979;51.014;6.678;2023-10-08T03:51:51;16.00;99.90
9881;DHT22;4979;51.014;6.678;2023-10-08T03:54:18;16.00;99.90
9881;DHT22;4979;51.014;6.678;2023-10-08T03:56:45;16.00;99.90
9881;DHT22;4979;51.014;6.678;2023-10-08T03:59:15;16.00;99.90
9881;DHT22;4979;51.014;6.678;2023-10-08T04:02:01;16.00;99.90
9881;DHT22;4979;51.014;6.678;2023-10-08T04:04:43;16.00;99.90
9881;DHT22;4979;51.014;6.678;2023-10-08T04:07:19;16.00;99.90
9881;DHT22;4979;51.014;6.678;2023-10-08T04:10:20;16.00;99.90
9881;DHT22;4979;51.014;6.678;2023-10-08T04:13:00;16.00;99.90
9881;DHT22;4979;51.014;6.678;2023-10-08T04:15:25;16.00;99.90
9881;DHT22;4979;51.014;6.678;2023-10-08T04:17:52;16.00;99.90
9881;DHT22;4979;51.014;6.678;2023-10-08T04:20:18;16.10;99.90
9881;DHT22;4979;51.014;6.678;2023-10-08T04:23:03;16.00;99.90
9881;DHT22;4979;51.014;6.678;2023-10-08T04:25:31;16.00;99.90
9881;DHT22;4979;51.014;6.678;2023-10-08T04:27:59;16.00;99.90
9881;DHT22;4979;51.014;6.678;2023-10-08T04:30:32;15.90;99.90
9881;DHT22;4979;51.014;6.678;2023-10-08T04:33:02;15.90;99.90
9881;DHT22;4979;51.014;6.678;2023-10-08T04:35:39;15.90;99.90
9881;DHT22;4979;51.014;6.678;2023-10-08T04:38:19;15.90;99.90
9881;DHT22;4979;51.014;6.678;2023-10-08T04:40:49;15.90;99.90
9881;DHT22;4979;51.014;6.678;2023-10-08T04:43:21;15.90;99.90
9881;DHT22;4979;51.014;6.678;2023-10-08T04:45:56;15.80;99.90
9881;DHT22;4979;51.014;6.678;2023-10-08T04:48:25;15.80;99.90
9881;DHT22;4979;51.014;6.678;2023-10-08T04:50:52;15.80;99.90
9881;DHT22;4979;51.014;6.678;2023-10-08T04:53:31;15.70;99.90
9881;DHT22;4979;51.014;6.678;2023-10-08T04:56:01;15.70;99.90
9881;DHT22;4979;51.014;6.678;2023-10-08T04:58:31;15.70;99.90
9881;DHT22;4979;51.014;6.678;2023-10-08T05:00:59;15.60;99.90
9881;DHT22;4979;51.014;6.678;2023-10-08T05:03:50;15.60;99.90
9881;DHT22;4979;51.014;6.678;2023-10-08T05:06:26;15.60;99.90
9881;DHT22;4979;51.014;6.678;2023-10-08T05:09:21;15.60;99.90
9881;DHT22;4979;51.014;6.678;2023-10-08T05:11:51;15.50;99.90
9881;DHT22;4979;51.014;6.678;2023-10-08T05:14:23;15.50;99.90
9881;DHT22;4979;51.014;6.678;2023-10-08T05:17:06;15.50;99.90
9881;DHT22;4979;51.014;6.678;2023-10-08T05:19:43;15.50;99.90
9881;DHT22;4979;51.014;6.678;2023-10-08T05:22:28;15.50;99.90
9881;DHT22;4979;51.014;6.678;2023-10-08T05:24:54;15.50;99.90
9881;DHT22;4979;51.014;6.678;2023-10-08T05:27:58;15.40;99.90
9881;DHT22;4979;51.014;6.678;2023-10-08T05:30:26;15.40;99.90
9881;DHT22;4979;51.014;6.678;2023-10-08T05:33:07;15.40;99.90
9881;DHT22;4979;51.014;6.678;2023-10-08T05:35:43;15.40;99.90
9881;DHT22;4979;51.014;6.678;2023-10-08T05:38:11;15.30;99.90
9881;DHT22;4979;51.014;6.678;2023-10-08T05:41:09;15.30;99.90
9881;DHT22;4979;51.014;6.678;2023-10-08T05:43:54;15.30;99.90
9881;DHT22;4979;51.014;6.678;2023-10-08T05:46:40;15.20;99.90
9881;DHT22;4979;51.014;6.678;2023-10-08T05:49:14;15.30;99.90
9881;DHT22;4979;51.014;6.678;2023-10-08T05:51:42;15.30;99.90
9881;DHT22;4979;51.014;6.678;2023-10-08T05:54:14;15.20;99.90
9881;DHT22;4979;51.014;6.678;2023-10-08T05:59:44;15.20;99.90
9881;DHT22;4979;51.014;6.678;2023-10-08T06:02:26;15.20;99.90
9881;DHT22;4979;51.014;6.678;2023-10-08T06:04:59;15.20;99.90
9881;DHT22;4979;51.014;6.678;2023-10-08T06:07:45;15.30;99.90
9881;DHT22;4979;51.014;6.678;2023-10-08T06:10:31;15.30;99.90
9881;DHT22;4979;51.014;6.678;2023-10-08T06:12:58;15.40;99.90
9881;DHT22;4979;51.014;6.678;2023-10-08T06:15:37;15.40;99.90
9881;DHT22;4979;51.014;6.678;2023-10-08T06:18:30;15.40;99.90
9881;DHT22;4979;51.014;6.678;2023-10-08T06:21:06;15.30;99.90
9881;DHT22;4979;51.014;6.678;2023-10-08T06:23:38;15.30;99.90
9881;DHT22;4979;51.014;6.678;2023-10-08T06:26:04;15.30;99.90
9881;DHT22;4979;51.014;6.678;2023-10-08T06:28:36;15.30;99.90
9881;DHT22;4979;51.014;6.678;2023-10-08T06:31:03;15.40;99.90
9881;DHT22;4979;51.014;6.678;2023-10-08T06:33:32;15.50;99.90
9881;DHT22;4979;51.014;6.678;2023-10-08T06:35:59;15.50;99.90
9881;DHT22;4979;51.014;6.678;2023-10-08T06:38:34;15.50;99.90
9881;DHT22;4979;51.014;6.678;2023-10-08T06:41:01;15.60;99.90
9881;DHT22;4979;51.014;6.678;2023-10-08T06:43:49;15.60;99.90
9881;DHT22;4979;51.014;6.678;2023-10-08T06:46:15;15.70;99.90
9881;DHT22;4979;51.014;6.678;2023-10-08T06:48:45;15.70;99.90
9881;DHT22;4979;51.014;6.678;2023-10-08T06:51:12;15.70;99.90
9881;DHT22;4979;51.014;6.678;2023-10-08T06:53:42;15.70;99.90
9881;DHT22;4979;51.014;6.678;2023-10-08T06:56:11;15.80;99.90
9881;DHT22;4979;51.014;6.678;2023-10-08T06:58:38;15.80;99.90
9881;DHT22;4979;51.014;6.678;2023-10-08T07:01:04;15.90;99.90
9881;DHT22;4979;51.014;6.678;2023-10-08T07:03:31;15.80;99.90
9881;DHT22;4979;51.014;6.678;2023-10-08T07:05:57;15.80;99.90
9881;DHT22;4979;51.014;6.678;2023-10-08T07:08:33;15.80;99.90
9881;DHT22;4979;51.014;6.678;2023-10-08T07:11:02;15.80;99.90
9881;DHT22;4979;51.014;6.678;2023-10-08T07:13:32;15.80;99.90
9881;DHT22;4979;51.014;6.678;2023-10-08T07:15:58;15.90;99.90
9881;DHT22;4979;51.014;6.678;2023-10-08T07:18:28;15.90;99.90
9881;DHT22;4979;51.014;6.678;2023-10-08T07:20:56;16.00;99.90
9881;DHT22;4979;51.014;6.678;2023-10-08T07:23:27;16.10;99.90
9881;DHT22;4979;51.014;6.678;2023-10-08T07:26:02;16.20;99.90
9881;DHT22;4979;51.014;6.678;2023-10-08T07:28:49;16.30;99.90
9881;DHT22;4979;51.014;6.678;2023-10-08T07:31:18;16.40;99.90
9881;DHT22;4979;51.014;6.678;2023-10-08T07:33:54;16.50;99.90
9881;DHT22;4979;51.014;6.678;2023-10-08T07:36:25;16.50;99.90
9881;DHT22;4979;51.014;6.678;2023-10-08T07:41:18;16.70;99.90
9881;DHT22;4979;51.014;6.678;2023-10-08T07:43:46;16.80;99.90
9881;DHT22;4979;51.014;6.678;2023-10-08T07:46:21;16.90;99.90
9881;DHT22;4979;51.014;6.678;2023-10-08T07:48:47;16.90;99.90
9881;DHT22;4979;51.014;6.678;2023-10-08T07:51:14;16.90;99.90
9881;DHT22;4979;51.014;6.678;2023-10-08T07:53:39;17.00;99.90
9881;DHT22;4979;51.014;6.678;2023-10-08T07:56:08;17.10;99.90
9881;DHT22;4979;51.014;6.678;2023-10-08T07:58:35;17.10;99.90
9881;DHT22;4979;51.014;6.678;2023-10-08T08:01:06;17.10;99.90
9881;DHT22;4979;51.014;6.678;2023-10-08T08:03:35;17.10;99.90
9881;DHT22;4979;51.014;6.678;2023-10-08T08:06:03;17.00;99.90
9881;DHT22;4979;51.014;6.678;2023-10-08T08:08:32;17.00;99.90
9881;DHT22;4979;51.014;6.678;2023-10-08T08:11:01;16.90;99.90
9881;DHT22;4979;51.014;6.678;2023-10-08T08:13:33;17.00;99.90
9881;DHT22;4979;51.014;6.678;2023-10-08T08:16:00;17.10;99.90
9881;DHT22;4979;51.014;6.678;2023-10-08T08:18:36;17.20;99.90
9881;DHT22;4979;51.014;6.678;2023-10-08T08:21:01;17.30;99.90
9881;DHT22;4979;51.014;6.678;2023-10-08T08:23:29;17.30;99.90
9881;DHT22;4979;51.014;6.678;2023-10-08T08:25:54;17.30;99.90
9881;DHT22;4979;51.014;6.678;2023-10-08T08:28:38;17.20;99.90
9881;DHT22;4979;51.014;6.678;2023-10-08T08:31:04;17.30;99.90
9881;DHT22;4979;51.014;6.678;2023-10-08T08:33:33;17.30;99.90
9881;DHT22;4979;51.014;6.678;2023-10-08T08:36:21;17.20;99.90
9881;DHT22;4979;51.014;6.678;2023-10-08T08:38:47;17.30;99.90
9881;DHT22;4979;51.014;6.678;2023-10-08T08:41:13;17.40;99.90
9881;DHT22;4979;51.014;6.678;2023-10-08T08:43:43;17.50;99.90
9881;DHT22;4979;51.014;6.678;2023-10-08T08:46:10;17.70;99.90
9881;DHT22;4979;51.014;6.678;2023-10-08T08:48:42;17.90;99.90
9881;DHT22;4979;51.014;6.678;2023-10-08T08:51:08;17.90;99.90
9881;DHT22;4979;51.014;6.678;2023-10-08T08:53:35;18.00;99.90
9881;DHT22;4979;51.014;6.678;2023-10-08T08:56:02;18.20;99.90
9881;DHT22;4979;51.014;6.678;2023-10-08T08:58:33;18.20;99.90
9881;DHT22;4979;51.014;6.678;2023-10-08T09:01:00;18.10;99.90
9881;DHT22;4979;51.014;6.678;2023-10-08T09:03:27;18.10;99.90
9881;DHT22;4979;51.014;6.678;2023-10-08T09:05:57;18.20;99.90
9881;DHT22;4979;51.014;6.678;2023-10-08T09:08:23;18.20;99.90
9881;DHT22;4979;51.014;6.678;2023-10-08T09:10:52;18.30;99.90
9881;DHT22;4979;51.014;6.678;2023-10-08T09:13:26;18.40;99.90
9881;DHT22;4979;51.014;6.678;2023-10-08T09:15:52;18.70;99.90
9881;DHT22;4979;51.014;6.678;2023-10-08T09:18:17;18.60;99.90
9881;DHT22;4979;51.014;6.678;2023-10-08T09:20:46;18.60;99.90
9881;DHT22;4979;51.014;6.678;2023-10-08T09:23:14;18.50;99.90
9881;DHT22;4979;51.014;6.678;2023-10-08T09:25:44;18.70;99.90
9881;DHT22;4979;51.014;6.678;2023-10-08T09:28:10;18.60;99.90
9881;DHT22;4979;51.014;6.678;2023-10-08T09:30:39;18.60;99.90
9881;DHT22;4979;51.014;6.678;2023-10-08T09:33:10;18.90;99.90
9881;DHT22;4979;51.014;6.678;2023-10-08T09:35:38;18.90;99.90
9881;DHT22;4979;51.014;6.678;2023-10-08T09:38:05;19.00;99.90
9881;DHT22;4979;51.014;6.678;2023-10-08T09:40:36;18.90;99.90
9881;DHT22;4979;51.014;6.678;2023-10-08T09:43:01;19.00;99.90
9881;DHT22;4979;51.014;6.678;2023-10-08T09:45:29;19.10;99.90
9881;DHT22;4979;51.014;6.678;2023-10-08T09:47:56;19.10;99.90
9881;DHT22;4979;51.014;6.678;2023-10-08T09:50:29;19.10;99.90
9881;DHT22;4979;51.014;6.678;2023-10-08T09:53:00;19.10;99.90
9881;DHT22;4979;51.014;6.678;2023-10-08T09:55:27;19.10;99.90
9881;DHT22;4979;51.014;6.678;2023-10-08T09:57:54;19.10;99.90
9881;DHT22;4979;51.014;6.678;2023-10-08T10:00:21;19.20;99.90
9881;DHT22;4979;51.014;6.678;2023-10-08T10:02:57;19.20;99.90
9881;DHT22;4979;51.014;6.678;2023-10-08T10:05:24;19.30;99.90
9881;DHT22;4979;51.014;6.678;2023-10-08T10:07:55;19.40;99.90
9881;DHT22;4979;51.014;6.678;2023-10-08T10:12:58;19.40;99.90
9881;DHT22;4979;51.014;6.678;2023-10-08T10:15:25;19.40;99.90
9881;DHT22;4979;51.014;6.678;2023-10-08T10:17:51;19.30;99.90
9881;DHT22;4979;51.014;6.678;2023-10-08T10:20:16;19.30;99.90
9881;DHT22;4979;51.014;6.678;2023-10-08T10:22:43;19.30;99.90
9881;DHT22;4979;51.014;6.678;2023-10-08T10:25:09;19.40;99.90
9881;DHT22;4979;51.014;6.678;2023-10-08T10:30:16;19.60;99.90
9881;DHT22;4979;51.014;6.678;2023-10-08T10:32:44;19.70;99.90
9881;DHT22;4979;51.014;6.678;2023-10-08T10:35:15;19.80;99.90
9881;DHT22;4979;51.014;6.678;2023-10-08T10:37:43;19.70;99.90
9881;DHT22;4979;51.014;6.678;2023-10-08T10:40:20;19.70;99.90
9881;DHT22;4979;51.014;6.678;2023-10-08T10:42:56;19.80;99.90
9881;DHT22;4979;51.014;6.678;2023-10-08T10:45:22;19.90;99.90
9881;DHT22;4979;51.014;6.678;2023-10-08T10:48:08;19.80;99.90
9881;DHT22;4979;51.014;6.678;2023-10-08T10:50:46;19.90;99.90
9881;DHT22;4979;51.014;6.678;2023-10-08T10:53:39;19.80;99.90
9881;DHT22;4979;51.014;6.678;2023-10-08T10:56:31;19.80;99.90
9881;DHT22;4979;51.014;6.678;2023-10-08T10:59:00;19.90;99.90
9881;DHT22;4979;51.014;6.678;2023-10-08T11:01:30;20.10;99.90
9881;DHT22;4979;51.014;6.678;2023-10-08T11:04:10;20.30;99.90
9881;DHT22;4979;51.014;6.678;2023-10-08T11:06:43;20.20;99.90
9881;DHT22;4979;51.014;6.678;2023-10-08T11:09:10;20.30;99.90
9881;DHT22;4979;51.014;6.678;2023-10-08T11:11:42;20.40;99.90
9881;DHT22;4979;51.014;6.678;2023-10-08T11:14:11;20.50;99.90
9881;DHT22;4979;51.014;6.678;2023-10-08T11:16:47;20.60;99.90
9881;DHT22;4979;51.014;6.678;2023-10-08T11:21:51;20.90;99.90
9881;DHT22;4979;51.014;6.678;2023-10-08T11:24:35;20.80;99.90
9881;DHT22;4979;51.014;6.678;2023-10-08T11:27:04;20.80;99.90
9881;DHT22;4979;51.014;6.678;2023-10-08T11:29:46;20.90;99.90
9881;DHT22;4979;51.014;6.678;2023-10-08T11:32:13;21.00;99.90
9881;DHT22;4979;51.014;6.678;2023-10-08T11:34:46;20.90;99.90
9881;DHT22;4979;51.014;6.678;2023-10-08T11:37:26;20.90;99.90
9881;DHT22;4979;51.014;6.678;2023-10-08T11:39:51;21.00;99.90
9881;DHT22;4979;51.014;6.678;2023-10-08T11:42:23;20.90;99.90
9881;DHT22;4979;51.014;6.678;2023-10-08T11:45:06;20.80;99.90
9881;DHT22;4979;51.014;6.678;2023-10-08T11:47:50;20.70;99.90
9881;DHT22;4979;51.014;6.678;2023-10-08T11:50:23;20.80;99.90
9881;DHT22;4979;51.014;6.678;2023-10-08T11:52:59;21.00;99.90
9881;DHT22;4979;51.014;6.678;2023-10-08T11:55:31;20.90;99.90
9881;DHT22;4979;51.014;6.678;2023-10-08T11:58:02;20.80;99.90
9881;DHT22;4979;51.014;6.678;2023-10-08T12:00:36;20.80;99.90
9881;DHT22;4979;51.014;6.678;2023-10-08T12:03:10;21.10;99.90
9881;DHT22;4979;51.014;6.678;2023-10-08T12:05:36;20.90;99.90
9881;DHT22;4979;51.014;6.678;2023-10-08T12:08:04;20.60;99.90
9881;DHT22;4979;51.014;6.678;2023-10-08T12:10:33;20.60;99.90
9881;DHT22;4979;51.014;6.678;2023-10-08T12:12:59;20.60;99.90
9881;DHT22;4979;51.014;6.678;2023-10-08T12:15:25;20.50;99.90
9881;DHT22;4979;51.014;6.678;2023-10-08T12:18:03;20.60;99.90
9881;DHT22;4979;51.014;6.678;2023-10-08T12:20:50;20.40;99.90
9881;DHT22;4979;51.014;6.678;2023-10-08T12:23:16;20.60;99.90
9881;DHT22;4979;51.014;6.678;2023-10-08T12:25:54;20.60;99.90
9881;DHT22;4979;51.014;6.678;2023-10-08T12:28:24;20.60;99.90
9881;DHT22;4979;51.014;6.678;2023-10-08T12:30:51;20.60;99.90
9881;DHT22;4979;51.014;6.678;2023-10-08T12:33:24;20.50;99.90
9881;DHT22;4979;51.014;6.678;2023-10-08T12:35:50;20.60;99.90
9881;DHT22;4979;51.014;6.678;2023-10-08T12:40:48;20.30;99.90
9881;DHT22;4979;51.014;6.678;2023-10-08T12:43:19;20.30;99.90
9881;DHT22;4979;51.014;6.678;2023-10-08T12:45:48;20.20;99.90
9881;DHT22;4979;51.014;6.678;2023-10-08T12:48:27;20.30;99.90
9881;DHT22;4979;51.014;6.678;2023-10-08T12:50:54;20.30;99.90
9881;DHT22;4979;51.014;6.678;2023-10-08T12:53:24;20.30;99.90
9881;DHT22;4979;51.014;6.678;2023-10-08T12:56:05;20.20;99.90
9881;DHT22;4979;51.014;6.678;2023-10-08T12:58:36;20.40;99.90
9881;DHT22;4979;51.014;6.678;2023-10-08T13:01:10;20.20;99.90
9881;DHT22;4979;51.014;6.678;2023-10-08T13:03:37;20.20;99.90
9881;DHT22;4979;51.014;6.678;2023-10-08T13:06:08;20.50;99.90
9881;DHT22;4979;51.014;6.678;2023-10-08T13:08:40;20.80;99.90
9881;DHT22;4979;51.014;6.678;2023-10-08T13:11:06;20.60;99.90
9881;DHT22;4979;51.014;6.678;2023-10-08T13:13:31;20.60;99.90
9881;DHT22;4979;51.014;6.678;2023-10-08T13:16:02;20.60;99.90
9881;DHT22;4979;51.014;6.678;2023-10-08T13:18:33;20.50;99.90
9881;DHT22;4979;51.014;6.678;2023-10-08T13:20:59;20.50;99.90
9881;DHT22;4979;51.014;6.678;2023-10-08T13:23:26;20.50;99.90
9881;DHT22;4979;51.014;6.678;2023-10-08T13:28:21;20.40;99.90
9881;DHT22;4979;51.014;6.678;2023-10-08T13:30:48;20.40;99.90
9881;DHT22;4979;51.014;6.678;2023-10-08T13:33:18;20.40;99.90
9881;DHT22;4979;51.014;6.678;2023-10-08T13:35:44;20.60;99.90
9881;DHT22;4979;51.014;6.678;2023-10-08T13:38:10;20.70;99.90
9881;DHT22;4979;51.014;6.678;2023-10-08T13:40:38;20.60;99.90
9881;DHT22;4979;51.014;6.678;2023-10-08T13:43:09;20.60;99.90
9881;DHT22;4979;51.014;6.678;2023-10-08T13:45:37;20.60;99.90
9881;DHT22;4979;51.014;6.678;2023-10-08T13:48:05;20.70;99.90
9881;DHT22;4979;51.014;6.678;2023-10-08T13:50:31;20.70;99.90
9881;DHT22;4979;51.014;6.678;2023-10-08T13:52:57;20.90;99.90
9881;DHT22;4979;51.014;6.678;2023-10-08T13:55:24;21.00;99.90
9881;DHT22;4979;51.014;6.678;2023-10-08T13:57:51;20.90;99.90
9881;DHT22;4979;51.014;6.678;2023-10-08T14:00:17;21.00;99.90
9881;DHT22;4979;51.014;6.678;2023-10-08T14:02:51;20.90;99.90
9881;DHT22;4979;51.014;6.678;2023-10-08T14:05:21;20.80;99.90
9881;DHT22;4979;51.014;6.678;2023-10-08T14:07:50;20.70;99.90
9881;DHT22;4979;51.014;6.678;2023-10-08T14:10:18;20.70;99.90
9881;DHT22;4979;51.014;6.678;2023-10-08T14:12:47;20.60;99.90
9881;DHT22;4979;51.014;6.678;2023-10-08T14:15:18;20.60;99.90
9881;DHT22;4979;51.014;6.678;2023-10-08T14:17:45;20.60;99.90
9881;DHT22;4979;51.014;6.678;2023-10-08T14:20:14;20.60;99.90
9881;DHT22;4979;51.014;6.678;2023-10-08T14:22:41;20.60;99.90
9881;DHT22;4979;51.014;6.678;2023-10-08T14:25:10;20.50;99.90
9881;DHT22;4979;51.014;6.678;2023-10-08T14:27:40;20.50;99.90
9881;DHT22;4979;51.014;6.678;2023-10-08T14:30:08;20.40;99.90
9881;DHT22;4979;51.014;6.678;2023-10-08T14:32:43;20.30;99.90
9881;DHT22;4979;51.014;6.678;2023-10-08T14:35:13;20.30;99.90
9881;DHT22;4979;51.014;6.678;2023-10-08T14:37:57;20.20;99.90
9881;DHT22;4979;51.014;6.678;2023-10-08T14:40:41;20.10;99.90
9881;DHT22;4979;51.014;6.678;2023-10-08T14:43:25;20.10;99.90
9881;DHT22;4979;51.014;6.678;2023-10-08T14:45:50;20.10;99.90
9881;DHT22;4979;51.014;6.678;2023-10-08T14:48:18;20.00;99.90
9881;DHT22;4979;51.014;6.678;2023-10-08T14:50:44;20.00;99.90
9881;DHT22;4979;51.014;6.678;2023-10-08T14:53:11;20.00;99.90
9881;DHT22;4979;51.014;6.678;2023-10-08T14:55:37;20.00;99.90
9881;DHT22;4979;51.014;6.678;2023-10-08T14:58:03;20.00;99.90
9881;DHT22;4979;51.014;6.678;2023-10-08T15:00:34;20.00;99.90
9881;DHT22;4979;51.014;6.678;2023-10-08T15:03:02;20.00;99.90
9881;DHT22;4979;51.014;6.678;2023-10-08T15:05:30;20.00;99.90
9881;DHT22;4979;51.014;6.678;2023-10-08T15:07:56;20.00;99.90
9881;DHT22;4979;51.014;6.678;2023-10-08T15:10:22;20.10;99.90
9881;DHT22;4979;51.014;6.678;2023-10-08T15:12:48;20.00;99.90
9881;DHT22;4979;51.014;6.678;2023-10-08T15:15:15;20.10;99.90
9881;DHT22;4979;51.014;6.678;2023-10-08T15:17:42;20.10;99.90
9881;DHT22;4979;51.014;6.678;2023-10-08T15:20:10;20.10;99.90
9881;DHT22;4979;51.014;6.678;2023-10-08T15:22:40;20.10;99.90
9881;DHT22;4979;51.014;6.678;2023-10-08T15:25:08;20.10;99.90
9881;DHT22;4979;51.014;6.678;2023-10-08T15:27:36;20.00;99.90
9881;DHT22;4979;51.014;6.678;2023-10-08T15:30:06;19.90;99.90
9881;DHT22;4979;51.014;6.678;2023-10-08T15:32:37;20.00;99.90
9881;DHT22;4979;51.014;6.678;2023-10-08T15:35:06;20.00;99.90
9881;DHT22;4979;51.014;6.678;2023-10-08T15:37:35;20.00;99.90
9881;DHT22;4979;51.014;6.678;2023-10-08T15:40:00;19.90;99.90
9881;DHT22;4979;51.014;6.678;2023-10-08T15:42:32;19.90;99.90
9881;DHT22;4979;51.014;6.678;2023-10-08T15:44:58;19.90;99.90
9881;DHT22;4979;51.014;6.678;2023-10-08T15:47:23;19.90;99.90
9881;DHT22;4979;51.014;6.678;2023-10-08T15:49:50;19.80;99.90
9881;DHT22;4979;51.014;6.678;2023-10-08T15:52:15;19.80;99.90
9881;DHT22;4979;51.014;6.678;2023-10-08T15:54:41;19.80;99.90
9881;DHT22;4979;51.014;6.678;2023-10-08T15:57:09;19.70;99.90
9881;DHT22;4979;51.014;6.678;2023-10-08T15:59:34;19.70;99.90
9881;DHT22;4979;51.014;6.678;2023-10-08T16:02:00;19.60;99.90
9881;DHT22;4979;51.014;6.678;2023-10-08T16:04:25;19.60;99.90
9881;DHT22;4979;51.014;6.678;2023-10-08T16:06:53;19.60;99.90
9881;DHT22;4979;51.014;6.678;2023-10-08T16:09:19;19.50;99.90
9881;DHT22;4979;51.014;6.678;2023-10-08T16:11:47;19.50;99.90
9881;DHT22;4979;51.014;6.678;2023-10-08T16:14:13;19.40;99.90
9881;DHT22;4979;51.014;6.678;2023-10-08T16:16:39;19.30;99.90
9881;DHT22;4979;51.014;6.678;2023-10-08T16:19:04;19.30;99.90
9881;DHT22;4979;51.014;6.678;2023-10-08T16:21:30;19.30;99.90
9881;DHT22;4979;51.014;6.678;2023-10-08T16:23:58;19.20;99.90
9881;DHT22;4979;51.014;6.678;2023-10-08T16:26:24;19.10;99.90
9881;DHT22;4979;51.014;6.678;2023-10-08T16:28:50;19.10;99.90
9881;DHT22;4979;51.014;6.678;2023-10-08T16:31:16;19.00;99.90
9881;DHT22;4979;51.014;6.678;2023-10-08T16:33:41;18.90;99.90
9881;DHT22;4979;51.014;6.678;2023-10-08T16:36:07;18.90;99.90
9881;DHT22;4979;51.014;6.678;2023-10-08T16:38:38;18.80;99.90
9881;DHT22;4979;51.014;6.678;2023-10-08T16:41:04;18.80;99.90
9881;DHT22;4979;51.014;6.678;2023-10-08T16:43:30;18.70;99.90
9881;DHT22;4979;51.014;6.678;2023-10-08T16:45:56;18.60;99.90
9881;DHT22;4979;51.014;6.678;2023-10-08T16:48:22;18.60;99.90
9881;DHT22;4979;51.014;6.678;2023-10-08T16:50:47;18.50;99.90